createdAt,value
2023-03-03T00:00:11.064Z,69.74
2023-03-03T00:01:11.069Z,69.99
2023-03-03T00:02:11.081Z,70.16
2023-03-03T00:03:12.077Z,70.27
2023-03-03T00:04:11.068Z,70.42
2023-03-03T00:05:11.074Z,70.61
2023-03-03T00:06:11.089Z,70.84
2023-03-03T00:07:11.065Z,70.91
2023-03-03T00:08:11.073Z,70.94
2023-03-03T00:09:11.063Z,70.96
2023-03-03T00:10:11.070Z,70.92
2023-03-03T00:11:11.072Z,71.34
2023-03-03T00:12:19.068Z,71.29
2023-03-03T00:13:18.064Z,71.13
2023-03-03T00:14:21.063Z,71.16
2023-03-03T00:15:18.070Z,71.14
2023-03-03T00:16:19.142Z,71.01
2023-03-03T00:17:21.076Z,70.91
2023-03-03T00:18:19.066Z,71.03
2023-03-03T00:19:19.066Z,71.15
2023-03-03T00:20:19.069Z,71.04
2023-03-03T00:21:19.066Z,71.06
2023-03-03T00:22:15.071Z,71.20
2023-03-03T00:23:19.062Z,71.14
2023-03-03T00:24:18.088Z,71.08
2023-03-03T00:25:19.111Z,71.27
2023-03-03T00:26:19.068Z,71.34
2023-03-03T00:27:21.064Z,71.15
2023-03-03T00:28:19.069Z,71.06
2023-03-03T00:29:19.068Z,71.16
2023-03-03T00:30:17.068Z,71.11
2023-03-03T00:31:21.100Z,71.27
2023-03-03T00:32:21.092Z,71.36
2023-03-03T00:33:19.072Z,71.29
2023-03-03T00:34:21.074Z,71.42
2023-03-03T00:35:19.142Z,71.56
2023-03-03T00:36:21.066Z,71.40
2023-03-03T00:37:19.067Z,71.34
2023-03-03T00:38:17.068Z,71.36
2023-03-03T00:39:21.076Z,71.49
2023-03-03T00:40:19.080Z,71.40
2023-03-03T00:41:21.067Z,71.39
2023-03-03T00:42:16.080Z,71.36
2023-03-03T00:43:19.093Z,71.42
2023-03-03T00:44:19.078Z,71.41
2023-03-03T00:45:21.071Z,71.34
2023-03-03T00:46:11.089Z,71.37
2023-03-03T00:47:19.070Z,71.61
2023-03-03T00:48:20.075Z,71.63
2023-03-03T00:49:19.071Z,71.56
2023-03-03T00:50:21.077Z,71.42
2023-03-03T00:51:19.071Z,71.51
2023-03-03T00:52:15.076Z,71.58
2023-03-03T00:53:13.082Z,71.55
2023-03-03T00:54:11.074Z,71.83
2023-03-03T00:55:11.067Z,71.77
2023-03-03T00:56:11.074Z,71.67
2023-03-03T00:57:11.071Z,71.71
2023-03-03T00:58:11.065Z,71.81
2023-03-03T00:59:11.073Z,71.75
2023-03-03T01:00:12.075Z,71.80
2023-03-03T01:01:11.070Z,71.73
2023-03-03T01:02:11.068Z,71.71
2023-03-03T01:03:14.057Z,71.90
2023-03-03T01:04:11.056Z,71.85
2023-03-03T01:05:12.064Z,71.78
2023-03-03T01:06:11.063Z,71.78
2023-03-03T01:07:11.063Z,71.71
2023-03-03T01:08:11.059Z,71.68
2023-03-03T01:09:11.061Z,71.62
2023-03-03T01:10:11.058Z,71.94
2023-03-03T01:11:19.071Z,71.87
2023-03-03T01:12:11.062Z,71.73
2023-03-03T01:13:11.058Z,71.68
2023-03-03T01:14:11.083Z,71.92
2023-03-03T01:15:11.077Z,71.87
2023-03-03T01:16:11.094Z,71.74
2023-03-03T01:17:11.065Z,71.56
2023-03-03T01:18:11.068Z,71.52
2023-03-03T01:19:11.065Z,71.45
2023-03-03T01:20:13.061Z,71.56
2023-03-03T01:21:11.070Z,71.57
2023-03-03T01:22:11.060Z,71.56
2023-03-03T01:23:11.062Z,71.52
2023-03-03T01:24:11.069Z,71.46
2023-03-03T01:25:11.059Z,71.43
2023-03-03T01:26:11.065Z,71.31
2023-03-03T01:27:11.069Z,71.35
2023-03-03T01:28:11.058Z,71.25
2023-03-03T01:29:11.064Z,71.26
2023-03-03T01:30:11.071Z,71.19
2023-03-03T01:31:11.087Z,71.00
2023-03-03T01:32:11.130Z,71.23
2023-03-03T01:33:11.069Z,71.32
2023-03-03T01:34:11.064Z,71.32
2023-03-03T01:35:11.058Z,71.23
2023-03-03T01:36:11.073Z,71.36
2023-03-03T01:37:11.078Z,71.33
2023-03-03T01:38:11.064Z,71.27
2023-03-03T01:39:11.060Z,71.23
2023-03-03T01:40:19.064Z,71.30
2023-03-03T01:41:11.071Z,71.46
2023-03-03T01:42:11.063Z,71.40
2023-03-03T01:43:12.068Z,71.35
2023-03-03T01:44:14.061Z,71.30
2023-03-03T01:45:19.068Z,71.23
2023-03-03T01:46:19.103Z,71.16
2023-03-03T01:47:17.061Z,71.25
2023-03-03T01:48:23.063Z,71.28
2023-03-03T01:49:18.061Z,71.30
2023-03-03T01:50:17.062Z,71.25
2023-03-03T01:51:21.073Z,71.26
2023-03-03T01:52:20.062Z,71.18
2023-03-03T01:53:15.061Z,71.20
2023-03-03T01:54:18.074Z,71.17
2023-03-03T01:55:13.068Z,71.02
2023-03-03T01:56:11.074Z,71.04
2023-03-03T01:57:18.061Z,71.15
2023-03-03T01:58:15.072Z,71.27
2023-03-03T01:59:19.073Z,71.28
2023-03-03T02:00:11.060Z,71.22
2023-03-03T02:01:15.059Z,71.31
2023-03-03T02:02:11.104Z,71.22
2023-03-03T02:03:11.170Z,71.18
2023-03-03T02:04:11.062Z,71.27
2023-03-03T02:05:11.060Z,71.70
2023-03-03T02:06:13.063Z,71.73
2023-03-03T02:07:14.061Z,71.64
2023-03-03T02:08:14.064Z,71.65
2023-03-03T02:09:21.061Z,71.56
2023-03-03T02:10:17.065Z,71.42
2023-03-03T02:11:11.070Z,71.46
2023-03-03T02:12:12.069Z,71.40
2023-03-03T02:13:11.067Z,71.42
2023-03-03T02:14:11.068Z,71.52
2023-03-03T02:15:17.068Z,71.54
2023-03-03T02:16:11.176Z,71.46
2023-03-03T02:17:11.078Z,71.33
2023-03-03T02:18:15.070Z,71.38
2023-03-03T02:19:21.070Z,71.32
2023-03-03T02:20:21.068Z,71.29
2023-03-03T02:21:20.090Z,71.55
2023-03-03T02:22:11.067Z,71.57
2023-03-03T02:23:21.080Z,71.60
2023-03-03T02:24:23.083Z,71.79
2023-03-03T02:25:15.071Z,71.69
2023-03-03T02:26:15.070Z,71.73
2023-03-03T02:27:11.082Z,71.60
2023-03-03T02:28:11.083Z,71.69
2023-03-03T02:29:11.083Z,71.74
2023-03-03T02:30:16.070Z,71.85
2023-03-03T02:31:12.117Z,71.98
2023-03-03T02:32:11.105Z,71.96
2023-03-03T02:33:11.071Z,71.92
2023-03-03T02:34:11.096Z,72.01
2023-03-03T02:35:19.146Z,71.90
2023-03-03T02:36:17.075Z,71.78
2023-03-03T02:37:11.080Z,71.80
2023-03-03T02:38:21.075Z,71.84
2023-03-03T02:39:17.071Z,71.80
2023-03-03T02:40:11.075Z,71.84
2023-03-03T02:41:19.093Z,71.92
2023-03-03T02:42:17.071Z,71.80
2023-03-03T02:43:11.071Z,71.87
2023-03-03T02:44:12.073Z,71.99
2023-03-03T02:45:11.074Z,72.07
2023-03-03T02:46:11.069Z,72.09
2023-03-03T02:47:11.076Z,72.03
2023-03-03T02:48:11.072Z,72.04
2023-03-03T02:49:11.068Z,72.02
2023-03-03T02:50:11.070Z,71.98
2023-03-03T02:51:11.069Z,72.05
2023-03-03T02:52:11.067Z,72.09
2023-03-03T02:53:11.068Z,72.16
2023-03-03T02:54:11.082Z,72.16
2023-03-03T02:55:11.064Z,72.04
2023-03-03T02:56:11.065Z,72.16
2023-03-03T02:57:11.085Z,72.19
2023-03-03T02:58:11.065Z,72.15
2023-03-03T02:59:11.074Z,72.28
2023-03-03T03:00:13.076Z,72.22
2023-03-03T03:01:11.165Z,72.21
2023-03-03T03:02:11.066Z,72.31
2023-03-03T03:03:11.074Z,72.33
2023-03-03T03:04:15.106Z,72.44
2023-03-03T03:05:11.090Z,72.44
2023-03-03T03:06:11.067Z,72.29
2023-03-03T03:07:11.095Z,72.49
2023-03-03T03:08:11.067Z,72.51
2023-03-03T03:09:11.073Z,72.50
2023-03-03T03:10:11.069Z,72.48
2023-03-03T03:11:11.063Z,72.44
2023-03-03T03:12:11.066Z,72.44
2023-03-03T03:13:11.067Z,72.47
2023-03-03T03:14:11.066Z,72.56
2023-03-03T03:15:11.065Z,72.79
2023-03-03T03:16:11.108Z,72.69
2023-03-03T03:17:11.064Z,72.86
2023-03-03T03:18:11.065Z,72.77
2023-03-03T03:19:11.088Z,72.84
2023-03-03T03:20:11.068Z,73.02
2023-03-03T03:21:11.069Z,73.12
2023-03-03T03:22:11.079Z,73.12
2023-03-03T03:23:11.071Z,73.21
2023-03-03T03:24:11.064Z,73.02
2023-03-03T03:25:11.074Z,72.99
2023-03-03T03:26:11.069Z,72.99
2023-03-03T03:27:11.074Z,72.89
2023-03-03T03:28:11.069Z,72.89
2023-03-03T03:29:11.116Z,72.95
2023-03-03T03:30:11.064Z,73.03
2023-03-03T03:31:11.108Z,72.94
2023-03-03T03:32:11.080Z,73.28
2023-03-03T03:33:11.064Z,73.11
2023-03-03T03:34:11.077Z,73.19
2023-03-03T03:35:11.070Z,73.05
2023-03-03T03:36:11.064Z,73.06
2023-03-03T03:37:11.070Z,73.02
2023-03-03T03:38:11.067Z,72.99
2023-03-03T03:39:11.066Z,72.89
2023-03-03T03:40:11.085Z,72.90
2023-03-03T03:41:11.074Z,72.82
2023-03-03T03:42:11.064Z,72.69
2023-03-03T03:43:11.071Z,72.66
2023-03-03T03:44:11.070Z,72.81
2023-03-03T03:45:11.071Z,72.77
2023-03-03T03:46:11.125Z,72.59
2023-03-03T03:47:11.070Z,72.68
2023-03-03T03:48:12.066Z,72.76
2023-03-03T03:49:11.083Z,72.86
2023-03-03T03:50:11.073Z,72.87
2023-03-03T03:51:11.063Z,72.81
2023-03-03T03:52:11.079Z,72.79
2023-03-03T03:53:11.070Z,72.87
2023-03-03T03:54:11.078Z,72.89
2023-03-03T03:55:11.081Z,72.91
2023-03-03T03:56:11.074Z,72.92
2023-03-03T03:57:11.069Z,73.08
2023-03-03T03:58:13.084Z,73.00
2023-03-03T03:59:11.077Z,72.95
2023-03-03T04:00:11.076Z,72.89
2023-03-03T04:01:11.072Z,73.10
2023-03-03T04:02:11.160Z,73.13
2023-03-03T04:03:11.197Z,73.13
2023-03-03T04:04:11.073Z,73.11
2023-03-03T04:05:11.068Z,73.21
2023-03-03T04:06:11.069Z,73.17
2023-03-03T04:07:11.700Z,73.19
2023-03-03T04:08:11.075Z,73.11
2023-03-03T04:09:11.076Z,73.08
2023-03-03T04:10:11.078Z,73.12
2023-03-03T04:11:11.083Z,73.12
2023-03-03T04:12:11.070Z,73.03
2023-03-03T04:13:11.090Z,73.01
2023-03-03T04:14:11.067Z,72.97
2023-03-03T04:15:11.066Z,73.05
2023-03-03T04:16:11.173Z,72.96
2023-03-03T04:17:15.064Z,72.86
2023-03-03T04:18:11.075Z,72.80
2023-03-03T04:19:11.074Z,72.88
2023-03-03T04:20:12.072Z,72.91
2023-03-03T04:21:15.071Z,72.86
2023-03-03T04:22:11.077Z,72.90
2023-03-03T04:23:11.071Z,72.81
2023-03-03T04:24:11.078Z,72.74
2023-03-03T04:25:13.084Z,72.74
2023-03-03T04:26:11.071Z,72.60
2023-03-03T04:27:11.066Z,72.69
2023-03-03T04:28:11.084Z,72.55
2023-03-03T04:29:11.071Z,72.67
2023-03-03T04:30:11.069Z,72.83
2023-03-03T04:31:11.181Z,72.84
2023-03-03T04:32:11.084Z,72.75
2023-03-03T04:33:11.069Z,72.66
2023-03-03T04:34:11.068Z,72.58
2023-03-03T04:35:11.072Z,72.75
2023-03-03T04:36:11.073Z,72.76
2023-03-03T04:37:11.069Z,72.84
2023-03-03T04:38:11.075Z,72.87
2023-03-03T04:39:11.082Z,72.79
2023-03-03T04:40:11.070Z,72.62
2023-03-03T04:41:11.073Z,72.62
2023-03-03T04:42:11.067Z,72.60
2023-03-03T04:43:11.070Z,72.65
2023-03-03T04:44:11.082Z,72.61
2023-03-03T04:45:11.075Z,72.65
2023-03-03T04:46:11.088Z,72.57
2023-03-03T04:47:11.077Z,72.59
2023-03-03T04:48:11.068Z,72.51
2023-03-03T04:49:12.538Z,72.48
2023-03-03T04:50:11.078Z,72.40
2023-03-03T04:51:11.068Z,72.34
2023-03-03T04:52:11.073Z,72.39
2023-03-03T04:53:11.081Z,72.66
2023-03-03T04:54:11.080Z,72.63
2023-03-03T04:55:11.070Z,72.59
2023-03-03T04:56:11.079Z,72.49
2023-03-03T04:57:11.075Z,72.44
2023-03-03T04:58:11.074Z,72.50
2023-03-03T04:59:11.093Z,72.48
2023-03-03T05:00:11.069Z,72.57
2023-03-03T05:01:13.130Z,72.63
2023-03-03T05:02:11.070Z,72.40
2023-03-03T05:03:11.065Z,72.50
2023-03-03T05:04:11.093Z,72.47
2023-03-03T05:05:11.094Z,72.51
2023-03-03T05:06:11.089Z,72.49
2023-03-03T05:07:11.069Z,72.31
2023-03-03T05:08:11.067Z,72.19
2023-03-03T05:09:11.067Z,72.16
2023-03-03T05:10:11.065Z,72.18
2023-03-03T05:11:11.076Z,72.20
2023-03-03T05:12:11.064Z,72.15
2023-03-03T05:13:11.067Z,72.21
2023-03-03T05:14:12.067Z,72.68
2023-03-03T05:15:11.064Z,72.46
2023-03-03T05:16:11.164Z,72.46
2023-03-03T05:17:11.078Z,72.34
2023-03-03T05:18:11.060Z,72.37
2023-03-03T05:19:11.069Z,72.42
2023-03-03T05:20:12.065Z,72.36
2023-03-03T05:21:11.062Z,72.34
2023-03-03T05:22:11.063Z,72.20
2023-03-03T05:23:11.080Z,72.14
2023-03-03T05:24:11.079Z,72.12
2023-03-03T05:25:11.068Z,72.09
2023-03-03T05:26:11.073Z,72.11
2023-03-03T05:27:11.060Z,72.10
2023-03-03T05:28:11.064Z,72.12
2023-03-03T05:29:11.072Z,72.07
2023-03-03T05:30:11.075Z,72.04
2023-03-03T05:31:11.090Z,72.01
2023-03-03T05:32:11.109Z,72.01
2023-03-03T05:33:12.073Z,71.97
2023-03-03T05:34:11.059Z,72.05
2023-03-03T05:35:11.068Z,72.05
2023-03-03T05:36:11.080Z,72.03
2023-03-03T05:37:11.082Z,71.89
2023-03-03T05:38:11.071Z,71.91
2023-03-03T05:39:11.062Z,71.82
2023-03-03T05:40:11.059Z,71.79
2023-03-03T05:41:11.067Z,71.80
2023-03-03T05:42:11.063Z,71.78
2023-03-03T05:43:11.063Z,71.76
2023-03-03T05:44:11.071Z,71.92
2023-03-03T05:45:11.064Z,71.81
2023-03-03T05:46:11.105Z,71.77
2023-03-03T05:47:11.069Z,71.67
2023-03-03T05:48:11.064Z,71.71
2023-03-03T05:49:11.082Z,71.61
2023-03-03T05:50:11.063Z,71.59
2023-03-03T05:51:11.063Z,71.65
2023-03-03T05:52:11.063Z,71.76
2023-03-03T05:53:11.064Z,71.70
2023-03-03T05:54:11.066Z,71.69
2023-03-03T05:55:11.080Z,71.76
2023-03-03T05:56:11.065Z,71.82
2023-03-03T05:57:11.081Z,71.82
2023-03-03T05:58:11.077Z,71.73
2023-03-03T05:59:11.066Z,71.68
2023-03-03T06:00:11.070Z,71.86
2023-03-03T06:01:11.066Z,71.84
2023-03-03T06:02:11.127Z,71.79
2023-03-03T06:03:11.099Z,71.68
2023-03-03T06:04:11.064Z,71.65
2023-03-03T06:05:11.072Z,71.59
2023-03-03T06:06:11.077Z,71.58
2023-03-03T06:07:11.070Z,71.61
2023-03-03T06:08:11.069Z,71.70
2023-03-03T06:09:11.069Z,71.71
2023-03-03T06:10:11.085Z,71.67
2023-03-03T06:11:11.081Z,71.64
2023-03-03T06:12:11.069Z,71.67
2023-03-03T06:13:11.062Z,71.58
2023-03-03T06:14:11.071Z,72.05
2023-03-03T06:15:11.131Z,72.30
2023-03-03T06:16:11.109Z,72.03
2023-03-03T06:17:11.075Z,72.03
2023-03-03T06:18:11.070Z,71.95
2023-03-03T06:19:11.069Z,71.94
2023-03-03T06:20:11.084Z,71.86
2023-03-03T06:21:11.081Z,71.86
2023-03-03T06:22:11.070Z,72.28
2023-03-03T06:23:11.072Z,72.47
2023-03-03T06:24:11.070Z,72.41
2023-03-03T06:25:11.071Z,72.29
2023-03-03T06:26:11.068Z,72.20
2023-03-03T06:27:11.074Z,72.06
2023-03-03T06:28:11.070Z,72.67
2023-03-03T06:29:11.068Z,72.70
2023-03-03T06:30:11.084Z,72.47
2023-03-03T06:31:11.070Z,72.36
2023-03-03T06:32:11.155Z,72.18
2023-03-03T06:33:11.072Z,72.05
2023-03-03T06:34:11.067Z,72.08
2023-03-03T06:35:11.072Z,72.10
2023-03-03T06:36:11.088Z,72.03
2023-03-03T06:37:11.063Z,71.90
2023-03-03T06:38:11.068Z,72.08
2023-03-03T06:39:11.075Z,72.08
2023-03-03T06:40:11.064Z,72.36
2023-03-03T06:41:12.069Z,72.31
2023-03-03T06:42:11.073Z,72.20
2023-03-03T06:43:11.067Z,72.10
2023-03-03T06:44:11.065Z,72.10
2023-03-03T06:45:11.074Z,72.03
2023-03-03T06:46:11.086Z,71.92
2023-03-03T06:47:11.061Z,71.90
2023-03-03T06:48:11.087Z,72.09
2023-03-03T06:49:11.066Z,72.27
2023-03-03T06:50:11.070Z,72.18
2023-03-03T06:51:19.074Z,72.04
2023-03-03T06:52:17.069Z,72.01
2023-03-03T06:53:14.065Z,72.03
2023-03-03T06:54:17.080Z,72.00
2023-03-03T06:55:17.080Z,71.97
2023-03-03T06:56:11.074Z,71.83
2023-03-03T06:57:21.064Z,71.85
2023-03-03T06:58:15.069Z,71.99
2023-03-03T06:59:20.071Z,72.14
2023-03-03T07:00:19.070Z,71.93
2023-03-03T07:01:16.113Z,71.95
2023-03-03T07:02:16.060Z,72.04
2023-03-03T07:03:16.098Z,72.36
2023-03-03T07:04:19.080Z,72.29
2023-03-03T07:05:17.068Z,72.19
2023-03-03T07:06:19.062Z,72.00
2023-03-03T07:07:18.071Z,72.01
2023-03-03T07:08:18.081Z,71.99
2023-03-03T07:09:20.080Z,71.87
2023-03-03T07:10:19.069Z,71.88
2023-03-03T07:11:12.070Z,71.78
2023-03-03T07:12:20.067Z,71.83
2023-03-03T07:13:19.095Z,71.64
2023-03-03T07:14:15.072Z,71.67
2023-03-03T07:15:19.073Z,71.68
2023-03-03T07:16:13.126Z,71.73
2023-03-03T07:17:15.079Z,71.76
2023-03-03T07:18:19.074Z,71.94
2023-03-03T07:19:19.073Z,71.87
2023-03-03T07:20:19.072Z,71.73
2023-03-03T07:21:16.079Z,71.80
2023-03-03T07:22:15.071Z,71.95
2023-03-03T07:23:19.073Z,71.96
2023-03-03T07:24:19.077Z,72.00
2023-03-03T07:25:19.075Z,71.89
2023-03-03T07:26:15.083Z,71.97
2023-03-03T07:27:18.081Z,71.86
2023-03-03T07:28:19.076Z,71.76
2023-03-03T07:29:21.076Z,71.77
2023-03-03T07:30:21.082Z,71.65
2023-03-03T07:31:20.182Z,71.60
2023-03-03T07:32:19.218Z,71.58
2023-03-03T07:33:19.071Z,71.45
2023-03-03T07:34:19.079Z,71.42
2023-03-03T07:35:21.106Z,71.33
2023-03-03T07:36:19.077Z,71.35
2023-03-03T07:37:19.074Z,71.34
2023-03-03T07:38:21.074Z,71.40
2023-03-03T07:39:19.088Z,71.43
2023-03-03T07:40:19.084Z,71.40
2023-03-03T07:41:17.088Z,71.26
2023-03-03T07:42:19.089Z,71.40
2023-03-03T07:43:21.075Z,71.41
2023-03-03T07:44:19.088Z,71.41
2023-03-03T07:45:19.126Z,71.34
2023-03-03T07:46:21.131Z,71.40
2023-03-03T07:47:19.083Z,71.29
2023-03-03T07:48:21.076Z,71.20
2023-03-03T07:49:19.082Z,71.19
2023-03-03T07:50:18.094Z,71.25
2023-03-03T07:51:19.080Z,71.18
2023-03-03T07:52:19.079Z,71.09
2023-03-03T07:53:19.076Z,71.09
2023-03-03T07:54:22.085Z,71.11
2023-03-03T07:55:19.088Z,71.07
2023-03-03T07:56:21.082Z,70.98
2023-03-03T07:57:19.079Z,70.94
2023-03-03T07:58:20.077Z,70.81
2023-03-03T07:59:19.081Z,70.79
2023-03-03T08:00:21.147Z,70.82
2023-03-03T08:01:19.086Z,70.87
2023-03-03T08:02:19.082Z,70.94
2023-03-03T08:03:17.085Z,70.87
2023-03-03T08:04:18.173Z,70.85
2023-03-03T08:05:21.273Z,70.87
2023-03-03T08:06:19.084Z,70.71
2023-03-03T08:07:16.085Z,70.65
2023-03-03T08:08:19.084Z,70.57
2023-03-03T08:09:21.081Z,70.56
2023-03-03T08:10:19.094Z,70.59
2023-03-03T08:11:13.081Z,70.64
2023-03-03T08:12:20.073Z,70.46
2023-03-03T08:13:19.078Z,70.48
2023-03-03T08:14:12.076Z,70.47
2023-03-03T08:15:19.089Z,70.30
2023-03-03T08:16:21.154Z,70.36
2023-03-03T08:17:19.071Z,70.38
2023-03-03T08:18:19.071Z,70.34
2023-03-03T08:19:15.079Z,70.32
2023-03-03T08:20:21.073Z,70.31
2023-03-03T08:21:15.079Z,70.30
2023-03-03T08:22:19.070Z,70.32
2023-03-03T08:23:11.066Z,70.31
2023-03-03T08:24:11.068Z,70.31
2023-03-03T08:25:11.068Z,70.26
2023-03-03T08:26:11.067Z,70.18
2023-03-03T08:27:11.066Z,70.34
2023-03-03T08:28:11.071Z,70.49
2023-03-03T08:29:11.065Z,70.36
2023-03-03T08:30:11.066Z,70.24
2023-03-03T08:31:20.253Z,70.42
2023-03-03T08:32:13.259Z,70.41
2023-03-03T08:33:11.084Z,70.42
2023-03-03T08:34:11.061Z,70.27
2023-03-03T08:35:11.068Z,70.27
2023-03-03T08:36:11.069Z,70.18
2023-03-03T08:37:11.067Z,70.20
2023-03-03T08:38:11.067Z,70.11
2023-03-03T08:39:11.068Z,70.06
2023-03-03T08:40:11.065Z,69.98
2023-03-03T08:41:11.066Z,69.98
2023-03-03T08:42:11.081Z,69.77
2023-03-03T08:43:11.063Z,69.73
2023-03-03T08:44:11.066Z,69.71
2023-03-03T08:45:11.069Z,69.61
2023-03-03T08:46:11.144Z,69.65
2023-03-03T08:47:11.060Z,69.70
2023-03-03T08:48:11.068Z,69.71
2023-03-03T08:49:11.070Z,69.75
2023-03-03T08:50:11.063Z,69.64
2023-03-03T08:51:11.066Z,69.67
2023-03-03T08:52:11.066Z,69.62
2023-03-03T08:53:11.095Z,69.52
2023-03-03T08:54:11.068Z,69.33
2023-03-03T08:55:11.066Z,69.28
2023-03-03T08:56:11.078Z,69.40
2023-03-03T08:57:11.064Z,69.28
2023-03-03T08:58:11.074Z,69.41
2023-03-03T08:59:11.078Z,69.34
2023-03-03T09:00:13.070Z,69.43
2023-03-03T09:01:11.073Z,69.47
2023-03-03T09:02:11.141Z,69.48
2023-03-03T09:03:11.069Z,69.48
2023-03-03T09:04:11.118Z,69.41
2023-03-03T09:05:11.081Z,69.51
2023-03-03T09:06:11.064Z,69.51
2023-03-03T09:07:11.074Z,69.43
2023-03-03T09:08:11.066Z,69.37
2023-03-03T09:09:11.069Z,69.39
2023-03-03T09:10:11.076Z,69.31
2023-03-03T09:11:19.064Z,69.38
2023-03-03T09:12:18.065Z,69.43
2023-03-03T09:13:15.069Z,69.44
2023-03-03T09:14:13.114Z,69.38
2023-03-03T09:15:19.073Z,69.21
2023-03-03T09:16:15.107Z,69.12
2023-03-03T09:17:19.107Z,69.09
2023-03-03T09:18:16.074Z,69.04
2023-03-03T09:19:20.070Z,69.12
2023-03-03T09:20:19.070Z,69.06
2023-03-03T09:21:19.070Z,69.15
2023-03-03T09:22:19.072Z,69.13
2023-03-03T09:23:19.067Z,69.08
2023-03-03T09:24:18.069Z,69.06
2023-03-03T09:25:19.067Z,69.10
2023-03-03T09:26:19.070Z,68.98
2023-03-03T09:27:18.074Z,69.01
2023-03-03T09:28:19.069Z,69.11
2023-03-03T09:29:18.066Z,69.12
2023-03-03T09:30:19.068Z,69.12
2023-03-03T09:31:19.079Z,68.95
2023-03-03T09:32:19.120Z,68.95
2023-03-03T09:33:19.073Z,69.10
2023-03-03T09:34:19.071Z,69.05
2023-03-03T09:35:19.125Z,69.05
2023-03-03T09:36:19.070Z,69.03
2023-03-03T09:37:20.076Z,69.02
2023-03-03T09:38:19.073Z,68.98
2023-03-03T09:39:17.065Z,68.98
2023-03-03T09:40:21.070Z,68.88
2023-03-03T09:41:21.071Z,68.81
2023-03-03T09:42:21.074Z,68.86
2023-03-03T09:43:19.833Z,68.85
2023-03-03T09:44:19.067Z,68.69
2023-03-03T09:45:19.062Z,68.85
2023-03-03T09:46:19.148Z,68.73
2023-03-03T09:47:22.232Z,68.70
2023-03-03T09:48:19.066Z,68.70
2023-03-03T09:49:21.069Z,68.68
2023-03-03T09:50:19.069Z,68.59
2023-03-03T09:51:19.064Z,68.41
2023-03-03T09:52:19.073Z,68.44
2023-03-03T09:53:19.083Z,68.42
2023-03-03T09:54:21.077Z,68.39
2023-03-03T09:55:21.066Z,68.29
2023-03-03T09:56:21.068Z,68.26
2023-03-03T09:57:19.075Z,68.23
2023-03-03T09:58:21.068Z,68.16
2023-03-03T09:59:19.066Z,68.07
2023-03-03T10:00:19.055Z,68.07
2023-03-03T10:01:19.056Z,68.08
2023-03-03T10:02:19.071Z,68.06
2023-03-03T10:03:19.140Z,68.01
2023-03-03T10:04:21.109Z,68.12
2023-03-03T10:05:19.061Z,68.09
2023-03-03T10:06:19.060Z,68.08
2023-03-03T10:07:19.067Z,68.15
2023-03-03T10:08:19.085Z,68.05
2023-03-03T10:09:19.066Z,67.98
2023-03-03T10:10:19.059Z,67.87
2023-03-03T10:11:21.059Z,67.65
2023-03-03T10:12:19.069Z,67.50
2023-03-03T10:13:19.059Z,67.45
2023-03-03T10:14:21.058Z,67.44
2023-03-03T10:15:19.060Z,67.51
2023-03-03T10:16:19.087Z,67.56
2023-03-03T10:17:19.074Z,67.65
2023-03-03T10:18:21.060Z,67.65
2023-03-03T10:19:21.056Z,67.72
2023-03-03T10:20:19.054Z,67.55
2023-03-03T10:21:21.068Z,67.41
2023-03-03T10:22:19.066Z,67.55
2023-03-03T10:23:19.072Z,67.55
2023-03-03T10:24:19.056Z,67.48
2023-03-03T10:25:21.062Z,67.51
2023-03-03T10:26:26.876Z,67.30
2023-03-03T10:27:21.278Z,67.44
2023-03-03T10:28:19.065Z,67.33
2023-03-03T10:29:22.426Z,67.25
2023-03-03T10:30:36.896Z,67.13
2023-03-03T10:31:21.205Z,67.19
2023-03-03T10:32:23.260Z,67.16
2023-03-03T10:33:18.304Z,67.14
2023-03-03T10:34:19.713Z,67.15
2023-03-03T10:35:19.140Z,67.18
2023-03-03T10:36:19.194Z,67.25
2023-03-03T10:37:19.059Z,67.11
2023-03-03T10:38:21.069Z,67.27
2023-03-03T10:39:19.078Z,67.33
2023-03-03T10:40:19.066Z,67.33
2023-03-03T10:41:19.061Z,67.49
2023-03-03T10:42:21.166Z,67.36
2023-03-03T10:43:31.088Z,67.34
2023-03-03T10:44:21.048Z,67.30
2023-03-03T10:45:21.062Z,67.35
2023-03-03T10:46:19.096Z,67.29
2023-03-03T10:47:19.060Z,67.32
2023-03-03T10:48:19.066Z,67.35
2023-03-03T10:49:19.059Z,67.20
2023-03-03T10:50:19.067Z,67.08
2023-03-03T10:51:21.063Z,67.23
2023-03-03T10:52:22.058Z,67.29
2023-03-03T10:53:21.072Z,67.32
2023-03-03T10:54:21.076Z,67.32
2023-03-03T10:55:19.065Z,67.20
2023-03-03T10:56:21.060Z,67.02
2023-03-03T10:57:19.063Z,66.96
2023-03-03T10:58:21.099Z,66.95
2023-03-03T10:59:21.071Z,67.04
2023-03-03T11:00:19.081Z,66.94
2023-03-03T11:01:23.820Z,66.93
2023-03-03T11:02:19.068Z,67.01
2023-03-03T11:03:21.061Z,67.04
2023-03-03T11:04:19.096Z,66.89
2023-03-03T11:05:19.061Z,66.80
2023-03-03T11:06:19.060Z,66.79
2023-03-03T11:07:19.058Z,66.82
2023-03-03T11:08:18.062Z,66.76
2023-03-03T11:09:19.076Z,66.76
2023-03-03T11:10:21.063Z,66.75
2023-03-03T11:11:21.065Z,66.80
2023-03-03T11:12:22.335Z,66.84
2023-03-03T11:13:24.128Z,66.63
2023-03-03T11:14:21.066Z,66.69
2023-03-03T11:15:19.093Z,66.96
2023-03-03T11:16:21.108Z,66.98
2023-03-03T11:17:19.061Z,66.92
2023-03-03T11:18:25.297Z,66.68
2023-03-03T11:19:21.066Z,66.99
2023-03-03T11:20:21.068Z,67.03
2023-03-03T11:21:19.097Z,67.09
2023-03-03T11:22:21.075Z,67.11
2023-03-03T11:23:19.061Z,66.94
2023-03-03T11:24:19.063Z,66.98
2023-03-03T11:25:19.070Z,66.76
2023-03-03T11:26:17.066Z,66.71
2023-03-03T11:27:19.065Z,66.64
2023-03-03T11:28:19.063Z,66.44
2023-03-03T11:29:19.062Z,66.36
2023-03-03T11:30:21.063Z,66.36
2023-03-03T11:31:19.122Z,66.40
2023-03-03T11:32:21.243Z,66.06
2023-03-03T11:33:21.062Z,66.28
2023-03-03T11:34:21.064Z,66.07
2023-03-03T11:35:21.094Z,66.09
2023-03-03T11:36:20.064Z,65.93
2023-03-03T11:37:19.075Z,65.97
2023-03-03T11:38:19.066Z,65.96
2023-03-03T11:39:17.074Z,66.18
2023-03-03T11:40:20.064Z,66.19
2023-03-03T11:41:18.078Z,66.08
2023-03-03T11:42:19.074Z,66.27
2023-03-03T11:43:34.126Z,66.33
2023-03-03T11:44:21.078Z,66.15
2023-03-03T11:45:20.073Z,66.10
2023-03-03T11:46:21.097Z,65.98
2023-03-03T11:47:21.069Z,65.97
2023-03-03T11:48:19.080Z,65.95
2023-03-03T11:49:18.074Z,65.93
2023-03-03T11:50:19.066Z,65.82
2023-03-03T11:51:19.072Z,65.91
2023-03-03T11:52:21.067Z,65.90
2023-03-03T11:53:19.076Z,65.85
2023-03-03T11:54:19.071Z,65.89
2023-03-03T11:55:19.070Z,66.01
2023-03-03T11:56:19.064Z,66.23
2023-03-03T11:57:20.071Z,66.47
2023-03-03T11:58:19.076Z,66.26
2023-03-03T11:59:19.069Z,66.25
2023-03-03T12:00:22.064Z,65.89
2023-03-03T12:01:19.074Z,66.05
2023-03-03T12:02:21.090Z,66.13
2023-03-03T12:03:18.071Z,66.18
2023-03-03T12:04:18.068Z,66.01
2023-03-03T12:05:17.085Z,65.83
2023-03-03T12:06:21.097Z,65.82
2023-03-03T12:07:19.979Z,65.80
2023-03-03T12:08:19.127Z,65.79
2023-03-03T12:09:21.070Z,65.80
2023-03-03T12:10:21.066Z,65.77
2023-03-03T12:11:21.064Z,65.77
2023-03-03T12:12:21.059Z,65.65
2023-03-03T12:13:19.073Z,65.58
2023-03-03T12:14:19.076Z,65.51
2023-03-03T12:15:19.076Z,65.50
2023-03-03T12:16:19.150Z,65.64
2023-03-03T12:17:19.062Z,65.63
2023-03-03T12:18:21.065Z,65.62
2023-03-03T12:19:19.072Z,65.73
2023-03-03T12:20:19.068Z,65.46
2023-03-03T12:21:21.068Z,65.50
2023-03-03T12:22:19.062Z,65.43
2023-03-03T12:23:19.066Z,65.50
2023-03-03T12:24:19.087Z,65.46
2023-03-03T12:25:21.067Z,65.50
2023-03-03T12:26:21.067Z,65.41
2023-03-03T12:27:21.064Z,65.46
2023-03-03T12:28:19.075Z,65.47
2023-03-03T12:29:19.077Z,65.48
2023-03-03T12:30:19.070Z,65.54
2023-03-03T12:31:19.158Z,65.56
2023-03-03T12:32:23.208Z,65.37
2023-03-03T12:33:21.067Z,65.44
2023-03-03T12:34:19.080Z,65.48
2023-03-03T12:35:20.092Z,65.46
2023-03-03T12:36:19.067Z,65.29
2023-03-03T12:37:19.067Z,65.23
2023-03-03T12:38:23.072Z,65.12
2023-03-03T12:39:33.728Z,65.15
2023-03-03T12:40:17.063Z,64.83
2023-03-03T12:41:21.075Z,64.74
2023-03-03T12:42:19.071Z,64.47
2023-03-03T12:43:19.075Z,64.38
2023-03-03T12:44:19.079Z,64.30
2023-03-03T12:45:21.073Z,64.36
2023-03-03T12:46:19.107Z,64.36
2023-03-03T12:47:23.148Z,64.10
2023-03-03T12:48:15.076Z,63.91
2023-03-03T12:49:11.080Z,63.89
2023-03-03T12:50:19.072Z,63.91
2023-03-03T12:51:21.073Z,64.02
2023-03-03T12:52:19.075Z,63.97